Terminal Aerodrome Forecast
Issued by NWS

Home | Current Version | Previous Version | Text Only | Print | Product List | Glossary On
Versions: 1 2 3 4 5 6 7 8 9 10 11 12 13 14 15 16 17 18 19 20
624
FTUS43 KMPX 291135
TAFAXN
TAF
KAXN 291135Z 2912/3012 29010KT P6SM OVC008
      TEMPO 2912/2914 SCT008 OVC012
     FM291500 29011KT P6SM BKN020
     FM291700 28012KT P6SM VCSH BKN045
     FM292100 30013G18KT P6SM SCT050
     FM300200 29006KT P6SM SKC=

USA.gov is the U.S. government's official web portal to all federal, state and local government web resources and services.